Time;durP1;ratioP1;P1;durP2;ratioP2;P2;SDS_P1;SDS_P2;PMS_P1;PMS_P2;Temp;Humidity;BMP_temperature;BMP_pressure;BME280_temperature;BME280_humidity;BME280_pressure;Samples;Min_cycle;Max_cycle;Signal;HPM_P1;HPM_P2
2022/01/28 00:00:13;;;;;;;5.20;1.85;;;3.90;99.90;;;;;;4987089;28;20476;-77
2022/01/28 00:02:53;;;;;;;6.03;1.90;;;3.90;99.90;;;;;;4989057;28;20046;-76
2022/01/28 00:05:23;;;;;;;6.80;1.93;;;3.90;99.90;;;;;;5003232;28;20125;-77
2022/01/28 00:07:52;;;;;;;8.43;2.67;;;3.90;99.90;;;;;;4970896;28;20130;-77
2022/01/28 00:10:22;;;;;;;4.38;2.22;;;3.90;99.90;;;;;;4988261;28;20046;-77
2022/01/28 00:13:19;;;;;;;3.92;1.83;;;4.00;99.90;;;;;;4970806;28;20404;-77
2022/01/28 00:16:03;;;;;;;7.25;1.98;;;4.00;99.90;;;;;;4998724;28;20441;-77
2022/01/28 00:19:00;;;;;;;6.00;2.43;;;4.00;99.90;;;;;;4986513;28;20141;-77
2022/01/28 00:38:59;;;;;;;4.25;2.13;;;4.10;99.90;;;;;;4985002;28;20034;-77
2022/01/28 00:41:28;;;;;;;4.88;2.20;;;4.00;99.90;;;;;;4979374;28;20559;-79
2022/01/28 00:43:58;;;;;;;4.55;1.90;;;4.00;99.90;;;;;;4987742;28;20134;-77
2022/01/28 00:46:30;;;;;;;5.90;1.73;;;4.00;99.90;;;;;;4992241;28;20042;-77
2022/01/28 00:48:59;;;;;;;6.15;2.33;;;4.00;99.90;;;;;;5001857;28;20640;-75
2022/01/28 00:51:31;;;;;;;3.85;1.67;;;4.10;99.90;;;;;;4992845;28;20424;-76
2022/01/28 00:54:01;;;;;;;3.75;1.58;;;4.00;99.90;;;;;;4969383;28;20051;-77
2022/01/28 00:56:30;;;;;;;6.03;1.92;;;4.00;99.90;;;;;;4967304;28;20416;-76
2022/01/28 00:59:00;;;;;;;3.37;1.17;;;4.00;99.90;;;;;;4989578;28;20050;-76
2022/01/28 01:04:23;;;;;;;5.47;2.13;;;4.00;99.90;;;;;;4987794;28;20077;-77
2022/01/28 01:06:51;;;;;;;4.65;2.15;;;4.00;99.90;;;;;;5001902;28;20050;-76
2022/01/28 01:09:20;;;;;;;3.65;1.48;;;3.90;99.90;;;;;;4973478;28;20070;-75
2022/01/28 01:11:48;;;;;;;6.90;3.27;;;4.00;99.90;;;;;;4995134;28;20054;-76
2022/01/28 01:14:17;;;;;;;5.15;2.40;;;4.00;99.90;;;;;;5003169;28;20537;-77
2022/01/28 01:17:04;;;;;;;4.70;2.33;;;3.90;99.90;;;;;;4991119;28;20409;-76
2022/01/28 01:19:38;;;;;;;5.70;1.83;;;4.00;99.90;;;;;;4988016;28;20053;-77
2022/01/28 01:22:08;;;;;;;4.38;2.17;;;3.90;99.90;;;;;;4967074;28;20042;-76
2022/01/28 01:24:47;;;;;;;5.90;2.63;;;3.90;99.90;;;;;;4986736;28;20498;-75
2022/01/28 01:27:20;;;;;;;4.18;1.70;;;3.90;99.90;;;;;;4973445;28;20576;-77
2022/01/28 01:29:50;;;;;;;4.90;2.45;;;4.00;99.90;;;;;;5007151;28;20382;-77
2022/01/28 01:32:19;;;;;;;6.20;2.45;;;4.00;99.90;;;;;;4990348;28;20061;-77
2022/01/28 01:34:48;;;;;;;5.20;2.72;;;4.00;99.90;;;;;;4992025;28;20046;-77
2022/01/28 01:37:21;;;;;;;7.97;2.90;;;4.00;99.90;;;;;;4982488;28;20379;-75
2022/01/28 01:39:51;;;;;;;4.70;2.58;;;4.00;99.90;;;;;;4985926;28;20049;-76
2022/01/28 01:42:29;;;;;;;5.00;2.28;;;4.00;99.90;;;;;;4988396;28;20069;-75
2022/01/28 01:53:26;;;;;;;7.18;3.13;;;3.90;99.90;;;;;;4999797;28;20046;-77
2022/01/28 01:55:57;;;;;;;5.75;2.90;;;4.00;99.90;;;;;;4974944;28;20035;-76
2022/01/28 01:58:30;;;;;;;4.80;2.05;;;4.00;99.90;;;;;;4984900;28;20070;-76
2022/01/28 02:01:07;;;;;;;6.40;2.90;;;4.10;99.90;;;;;;4991687;28;20042;-76
2022/01/28 02:03:36;;;;;;;7.23;2.30;;;4.10;99.90;;;;;;4986371;28;20134;-76
2022/01/28 02:06:07;;;;;;;5.65;2.20;;;4.00;99.90;;;;;;4993112;28;20412;-76
2022/01/28 02:08:36;;;;;;;6.40;3.00;;;4.00;99.90;;;;;;4985583;28;20170;-76
2022/01/28 02:11:08;;;;;;;5.28;2.50;;;4.10;99.90;;;;;;4998663;28;20106;-75
2022/01/28 02:13:39;;;;;;;6.80;2.67;;;4.00;99.90;;;;;;4988605;28;20114;-77
2022/01/28 02:16:10;;;;;;;6.77;2.50;;;4.10;99.90;;;;;;4998153;28;20101;-77
2022/01/28 02:18:39;;;;;;;7.22;1.70;;;4.10;99.90;;;;;;5001713;28;20053;-77
2022/01/28 02:21:11;;;;;;;6.28;2.30;;;4.10;99.90;;;;;;5004887;28;20053;-77
2022/01/28 02:23:46;;;;;;;3.55;1.77;;;4.10;99.90;;;;;;4989506;28;20050;-77
2022/01/28 02:26:16;;;;;;;8.05;2.35;;;4.10;99.90;;;;;;4989293;28;20053;-77
2022/01/28 02:28:51;;;;;;;6.27;2.60;;;4.10;99.90;;;;;;4989232;28;20046;-77
2022/01/28 02:31:23;;;;;;;5.28;2.67;;;4.00;99.90;;;;;;4989639;28;20062;-77
2022/01/28 02:33:55;;;;;;;5.65;2.72;;;4.00;99.90;;;;;;4984833;28;20089;-77
2022/01/28 02:36:26;;;;;;;5.30;2.63;;;4.00;99.90;;;;;;4980401;28;20051;-76
2022/01/28 02:38:57;;;;;;;7.80;2.63;;;4.00;99.90;;;;;;5001336;28;20057;-76
2022/01/28 02:41:31;;;;;;;6.17;2.80;;;4.00;99.90;;;;;;4972592;28;20054;-76
2022/01/28 02:44:10;;;;;;;7.35;1.63;;;4.00;99.90;;;;;;4985430;28;20069;-77
2022/01/28 02:46:52;;;;;;;5.85;2.78;;;4.10;99.90;;;;;;4987418;28;21423;-76
2022/01/28 02:49:21;;;;;;;6.82;2.83;;;4.00;99.90;;;;;;4984152;28;20053;-78
2022/01/28 02:51:51;;;;;;;3.90;1.45;;;4.00;99.90;;;;;;4969942;28;20082;-76
2022/01/28 02:54:46;;;;;;;6.50;2.37;;;4.00;99.90;;;;;;4973042;28;20034;-76
2022/01/28 02:57:21;;;;;;;5.90;2.50;;;4.00;99.90;;;;;;4988657;28;20616;-77
2022/01/28 02:59:50;;;;;;;7.57;2.70;;;4.00;99.90;;;;;;4988453;28;20089;-78
2022/01/28 03:08:00;;;;;;;6.00;2.53;;;4.00;99.90;;;;;;4984715;28;20165;-77
2022/01/28 03:10:39;;;;;;;4.65;2.00;;;4.00;99.90;;;;;;4988418;28;20073;-77
2022/01/28 03:16:10;;;;;;;7.85;2.13;;;4.10;99.90;;;;;;4978618;28;20046;-76
2022/01/28 03:18:47;;;;;;;4.60;1.67;;;4.00;99.90;;;;;;4972254;28;20129;-78
2022/01/28 03:24:04;;;;;;;5.60;2.20;;;4.00;99.90;;;;;;4987152;28;20055;-76
2022/01/28 03:26:32;;;;;;;7.15;2.63;;;4.00;99.90;;;;;;4994670;28;20496;-77
2022/01/28 03:29:01;;;;;;;5.07;1.65;;;3.90;99.90;;;;;;4982595;28;20039;-76
2022/01/28 03:31:30;;;;;;;5.55;1.90;;;4.00;99.90;;;;;;4971435;28;20069;-76
2022/01/28 03:33:59;;;;;;;6.03;2.60;;;4.00;99.90;;;;;;5002154;28;20046;-75
2022/01/28 03:36:28;;;;;;;6.65;2.38;;;4.00;99.90;;;;;;4987521;28;20129;-75
2022/01/28 03:38:57;;;;;;;4.65;2.42;;;4.00;99.90;;;;;;4967997;28;20039;-76
2022/01/28 03:41:28;;;;;;;5.28;2.05;;;4.10;99.90;;;;;;4964610;28;20051;-76
2022/01/28 03:44:00;;;;;;;5.45;2.40;;;4.00;99.90;;;;;;4968244;28;20039;-77
2022/01/28 03:46:30;;;;;;;5.40;2.30;;;4.10;99.90;;;;;;4951117;28;20066;-76
2022/01/28 03:48:59;;;;;;;4.70;3.15;;;4.00;99.90;;;;;;4946741;28;20043;-75
2022/01/28 03:51:28;;;;;;;6.35;2.20;;;4.00;99.90;;;;;;4969616;28;20054;-75
2022/01/28 03:53:57;;;;;;;7.90;2.13;;;4.10;99.90;;;;;;4950253;28;20046;-76
2022/01/28 03:56:28;;;;;;;5.50;2.45;;;4.10;99.90;;;;;;4951220;28;20043;-76
2022/01/28 03:58:58;;;;;;;5.33;2.30;;;4.10;99.90;;;;;;4966267;28;20043;-75
2022/01/28 04:01:32;;;;;;;5.10;2.58;;;4.10;99.90;;;;;;4966853;28;20142;-76
2022/01/28 04:04:37;;;;;;;5.00;2.15;;;4.10;99.90;;;;;;4944133;28;20035;-76
2022/01/28 04:12:41;;;;;;;6.07;1.93;;;3.90;99.90;;;;;;4945654;28;20507;-76
2022/01/28 04:15:22;;;;;;;6.97;3.03;;;3.90;99.90;;;;;;4968925;28;20078;-78
2022/01/28 04:17:55;;;;;;;5.25;2.22;;;3.90;99.90;;;;;;4946600;28;20053;-75
2022/01/28 04:20:24;;;;;;;6.45;3.05;;;4.00;99.90;;;;;;4974801;28;20161;-75
2022/01/28 04:22:53;;;;;;;3.78;2.17;;;3.90;99.90;;;;;;4979746;28;20035;-76
2022/01/28 04:25:22;;;;;;;11.77;3.30;;;3.90;99.90;;;;;;4948441;28;20375;-77
2022/01/28 04:27:52;;;;;;;5.70;2.53;;;3.90;99.90;;;;;;4980585;28;20130;-77
2022/01/28 04:30:20;;;;;;;4.38;2.00;;;3.90;99.90;;;;;;4968794;28;20038;-76
2022/01/28 04:32:52;;;;;;;4.88;2.00;;;3.90;99.90;;;;;;4966614;28;20416;-75
2022/01/28 04:35:21;;;;;;;6.80;2.78;;;3.90;99.90;;;;;;4969761;28;20081;-76
2022/01/28 04:38:02;;;;;;;6.57;2.83;;;4.00;99.90;;;;;;4960335;28;20058;-76
2022/01/28 04:40:35;;;;;;;6.35;2.15;;;3.90;99.90;;;;;;4980623;28;20052;-76
2022/01/28 04:43:14;;;;;;;4.88;2.40;;;3.90;99.90;;;;;;4983576;28;20053;-76
2022/01/28 04:45:50;;;;;;;5.47;2.72;;;3.90;99.90;;;;;;4963625;28;20440;-76
2022/01/28 04:48:26;;;;;;;5.20;2.65;;;3.90;99.90;;;;;;4983829;28;20411;-76
2022/01/28 04:51:09;;;;;;;5.47;2.00;;;3.90;99.90;;;;;;4969226;28;20043;-76
2022/01/28 04:53:49;;;;;;;5.20;1.92;;;3.90;99.90;;;;;;4989142;28;20046;-76
2022/01/28 04:56:33;;;;;;;4.57;2.13;;;3.90;99.90;;;;;;4994854;28;20042;-76
2022/01/28 04:59:24;;;;;;;5.13;2.10;;;3.90;99.90;;;;;;4986650;28;20053;-76
2022/01/28 05:13:24;;;;;;;8.50;2.40;;;3.90;99.90;;;;;;4985940;28;20097;-78
2022/01/28 05:27:07;;;;;;;5.13;2.15;;;3.90;99.90;;;;;;5000697;28;20054;-76
2022/01/28 05:29:39;;;;;;;4.88;2.05;;;4.00;99.90;;;;;;4987311;28;20416;-76
2022/01/28 05:32:11;;;;;;;5.87;2.23;;;4.00;99.90;;;;;;4986163;28;20515;-76
2022/01/28 05:37:34;;;;;;;4.25;2.17;;;4.00;99.90;;;;;;4982297;28;20062;-77
2022/01/28 05:40:04;;;;;;;4.80;1.83;;;4.00;99.90;;;;;;4993198;28;20456;-79
2022/01/28 05:42:32;;;;;;;3.45;1.17;;;4.00;99.90;;;;;;4989768;28;20547;-76
2022/01/28 05:45:01;;;;;;;5.87;1.97;;;3.90;99.90;;;;;;4973235;28;20097;-76
2022/01/28 05:47:35;;;;;;;3.50;1.60;;;3.90;99.90;;;;;;4972858;28;20050;-83
2022/01/28 05:50:29;;;;;;;4.80;2.28;;;4.00;99.90;;;;;;4987513;28;20061;-76
2022/01/28 05:52:57;;;;;;;4.93;2.25;;;3.90;99.90;;;;;;4987356;28;20121;-76
2022/01/28 05:55:26;;;;;;;8.90;1.83;;;3.90;99.90;;;;;;4970314;28;20046;-81
2022/01/28 06:00:48;;;;;;;5.63;2.00;;;3.90;99.90;;;;;;4985500;28;20152;-83
2022/01/28 06:03:20;;;;;;;7.50;2.80;;;3.90;99.90;;;;;;4989581;28;20115;-77
2022/01/28 06:05:49;;;;;;;5.88;2.40;;;3.90;99.90;;;;;;4985234;28;20088;-78
2022/01/28 06:08:20;;;;;;;6.68;2.63;;;3.90;99.90;;;;;;4991544;28;20474;-74
2022/01/28 06:10:49;;;;;;;6.97;2.10;;;3.90;99.90;;;;;;4996346;28;20086;-77
2022/01/28 06:13:18;;;;;;;3.40;1.70;;;3.80;99.90;;;;;;4986771;28;20062;-77
2022/01/28 06:15:47;;;;;;;7.40;2.75;;;3.90;99.90;;;;;;4971884;28;20592;-76
2022/01/28 06:18:20;;;;;;;3.67;2.13;;;3.80;99.90;;;;;;4967402;28;20141;-75
2022/01/28 06:20:52;;;;;;;7.65;2.30;;;3.90;99.90;;;;;;4984934;28;20517;-77
2022/01/28 06:23:22;;;;;;;5.07;1.93;;;3.90;99.90;;;;;;4991221;28;20046;-75
2022/01/28 06:25:51;;;;;;;4.53;2.08;;;3.90;99.90;;;;;;4990148;28;20485;-76
2022/01/28 06:28:20;;;;;;;5.22;2.00;;;3.90;99.90;;;;;;4989032;28;20564;-76
2022/01/28 06:30:49;;;;;;;7.68;2.22;;;3.90;99.90;;;;;;4985694;28;20054;-76
2022/01/28 06:33:19;;;;;;;7.15;2.22;;;3.80;99.90;;;;;;4991403;28;20336;-75
2022/01/28 06:38:43;;;;;;;7.80;2.70;;;3.80;99.90;;;;;;4990011;28;20046;-75
2022/01/28 06:41:11;;;;;;;3.92;1.73;;;3.80;99.90;;;;;;4984153;28;20058;-76
2022/01/28 06:43:41;;;;;;;7.78;2.55;;;3.80;99.90;;;;;;4990436;28;20038;-76
2022/01/28 06:46:10;;;;;;;3.00;1.40;;;3.80;99.90;;;;;;4988519;28;20138;-76
2022/01/28 06:48:39;;;;;;;3.63;1.30;;;3.70;99.90;;;;;;4983589;28;20504;-76
2022/01/28 06:51:08;;;;;;;5.57;2.35;;;3.70;99.90;;;;;;4986986;28;20043;-76
2022/01/28 06:53:37;;;;;;;3.22;1.40;;;3.70;99.90;;;;;;4991829;28;20058;-76
2022/01/28 06:56:10;;;;;;;6.13;2.67;;;3.70;99.90;;;;;;4999704;28;20106;-75
2022/01/28 06:58:39;;;;;;;3.97;2.10;;;3.70;99.90;;;;;;4997289;28;20046;-76
2022/01/28 07:01:09;;;;;;;5.70;2.03;;;3.70;99.90;;;;;;4984330;28;20069;-76
2022/01/28 07:03:39;;;;;;;3.63;1.55;;;3.80;99.90;;;;;;4988648;28;20132;-76
2022/01/28 07:06:08;;;;;;;3.75;1.58;;;3.70;99.90;;;;;;4983735;28;20046;-76
2022/01/28 07:08:38;;;;;;;4.28;1.65;;;3.70;99.90;;;;;;4984184;28;20052;-76
2022/01/28 07:11:13;;;;;;;4.50;1.70;;;3.70;99.90;;;;;;4985854;28;20465;-77
2022/01/28 07:13:42;;;;;;;6.80;1.70;;;3.70;99.90;;;;;;4988938;28;20050;-76
2022/01/28 07:16:14;;;;;;;5.88;1.42;;;3.70;99.90;;;;;;4983088;28;20070;-76
2022/01/28 07:18:43;;;;;;;2.35;1.00;;;3.70;99.90;;;;;;4981047;28;20043;-76
2022/01/28 07:21:13;;;;;;;5.00;1.40;;;3.70;99.90;;;;;;4984983;28;20485;-76
2022/01/28 07:23:41;;;;;;;2.90;1.42;;;3.70;99.90;;;;;;4929631;28;20077;-77
2022/01/28 07:26:11;;;;;;;2.30;1.00;;;3.70;99.90;;;;;;4989159;28;20081;-76
2022/01/28 07:28:41;;;;;;;5.38;1.15;;;3.70;99.90;;;;;;4986534;28;20499;-76
2022/01/28 07:31:14;;;;;;;6.07;2.20;;;3.80;99.90;;;;;;4995319;28;20480;-76
2022/01/28 07:33:43;;;;;;;9.65;2.05;;;3.80;99.90;;;;;;4985683;28;20082;-76
2022/01/28 07:36:11;;;;;;;4.03;1.15;;;3.80;99.90;;;;;;4984379;28;20084;-76
2022/01/28 07:38:40;;;;;;;5.97;2.23;;;3.80;99.90;;;;;;4982465;28;20520;-76
2022/01/28 07:41:09;;;;;;;6.20;1.60;;;3.70;99.90;;;;;;4985031;28;20058;-75
2022/01/28 07:43:42;;;;;;;5.13;1.75;;;3.70;99.90;;;;;;4982786;28;20049;-76
2022/01/28 07:46:10;;;;;;;5.00;1.83;;;3.70;99.90;;;;;;4997741;28;20066;-76
2022/01/28 07:48:39;;;;;;;3.72;1.45;;;3.70;99.90;;;;;;4989892;28;20046;-77
2022/01/28 07:51:08;;;;;;;5.33;1.63;;;3.60;99.90;;;;;;4983854;28;20050;-76
2022/01/28 07:53:36;;;;;;;7.88;1.60;;;3.60;99.90;;;;;;4996943;28;20042;-75
2022/01/28 07:56:13;;;;;;;6.35;1.65;;;3.70;99.90;;;;;;4983156;28;20049;-76
2022/01/28 07:58:43;;;;;;;5.80;1.45;;;3.70;99.90;;;;;;4983206;28;20053;-75
2022/01/28 08:01:12;;;;;;;2.95;1.20;;;3.70;99.90;;;;;;4985890;28;20083;-75
2022/01/28 08:03:41;;;;;;;6.93;1.83;;;3.70;99.90;;;;;;4994384;28;20057;-77
2022/01/28 08:06:10;;;;;;;3.95;1.27;;;3.70;99.90;;;;;;5013813;28;20070;-75
2022/01/28 08:08:39;;;;;;;4.70;1.63;;;3.80;99.90;;;;;;4987676;28;20124;-74
2022/01/28 08:11:08;;;;;;;3.53;1.73;;;3.90;99.90;;;;;;4981173;28;20469;-75
2022/01/28 08:13:38;;;;;;;2.63;0.70;;;3.90;99.90;;;;;;4984075;28;20054;-75
2022/01/28 08:16:10;;;;;;;2.80;1.07;;;3.90;99.90;;;;;;4981894;28;20124;-75
2022/01/28 08:18:40;;;;;;;2.97;1.00;;;3.90;99.90;;;;;;4996758;28;20038;-75
2022/01/28 08:21:09;;;;;;;4.22;1.23;;;4.00;99.90;;;;;;4971882;28;20050;-75
2022/01/28 08:23:37;;;;;;;2.30;0.70;;;4.00;99.90;;;;;;4995974;28;20046;-77
2022/01/28 08:26:08;;;;;;;2.83;1.40;;;4.00;99.90;;;;;;4988471;28;20497;-76
2022/01/28 08:28:41;;;;;;;3.27;0.77;;;4.00;99.90;;;;;;4982771;28;20055;-76
2022/01/28 08:31:11;;;;;;;2.53;0.55;;;3.90;99.90;;;;;;4997975;28;20038;-75
2022/01/28 08:33:40;;;;;;;4.65;0.98;;;3.90;99.90;;;;;;4982786;28;20057;-75
2022/01/28 08:36:09;;;;;;;1.90;0.63;;;3.90;99.90;;;;;;5002153;28;20053;-77
2022/01/28 08:38:44;;;;;;;2.90;1.00;;;3.90;99.90;;;;;;4985454;28;20062;-77
2022/01/28 08:41:16;;;;;;;2.80;1.50;;;3.90;99.90;;;;;;4999306;28;20070;-75
2022/01/28 08:43:44;;;;;;;5.95;1.15;;;4.00;99.90;;;;;;4993119;28;20053;-76
2022/01/28 08:46:15;;;;;;;5.50;1.20;;;4.00;99.90;;;;;;5001878;28;20484;-75
2022/01/28 08:48:44;;;;;;;4.45;0.77;;;4.00;99.90;;;;;;4993493;28;20069;-75
2022/01/28 08:51:13;;;;;;;4.18;1.00;;;4.00;99.90;;;;;;5001308;28;20097;-75
2022/01/28 08:53:43;;;;;;;4.33;1.27;;;4.10;99.90;;;;;;4995994;28;20477;-75
2022/01/28 08:56:11;;;;;;;3.63;0.93;;;4.20;99.90;;;;;;5000131;28;20054;-76
2022/01/28 08:58:40;;;;;;;1.90;1.00;;;4.20;99.90;;;;;;5002394;28;20043;-75
2022/01/28 09:01:11;;;;;;;3.95;0.95;;;4.20;99.90;;;;;;4985058;28;20129;-75
2022/01/28 09:03:41;;;;;;;2.40;0.82;;;4.20;99.90;;;;;;4977825;28;20053;-74
2022/01/28 09:06:09;;;;;;;5.63;0.93;;;4.10;99.90;;;;;;4985140;28;20087;-74
2022/01/28 09:08:59;;;;;;;2.10;0.77;;;4.10;99.90;;;;;;4987943;28;20150;-75
2022/01/28 09:11:46;;;;;;;2.75;1.00;;;4.10;99.90;;;;;;5003618;28;20074;-76
2022/01/28 09:14:15;;;;;;;2.03;1.40;;;4.20;99.90;;;;;;5020653;28;20101;-76
2022/01/28 09:17:07;;;;;;;1.85;0.98;;;4.20;99.90;;;;;;5017736;28;20038;-76
2022/01/28 09:19:37;;;;;;;3.90;1.00;;;4.30;99.90;;;;;;5000372;28;20038;-76
2022/01/28 09:22:06;;;;;;;10.43;0.98;;;4.30;99.90;;;;;;5002449;28;20058;-76
2022/01/28 09:24:34;;;;;;;4.28;0.52;;;4.30;99.90;;;;;;4987292;28;20774;-76
2022/01/28 09:27:03;;;;;;;4.47;1.05;;;4.40;99.90;;;;;;5001310;28;20129;-76
2022/01/28 09:29:31;;;;;;;2.85;0.80;;;4.40;99.90;;;;;;4996729;28;20105;-75
2022/01/28 09:32:00;;;;;;;1.77;0.63;;;4.40;99.90;;;;;;4985549;28;20042;-76
2022/01/28 09:34:29;;;;;;;3.58;0.70;;;4.40;99.90;;;;;;5005877;28;20132;-76
2022/01/28 09:36:59;;;;;;;4.75;0.98;;;4.40;99.90;;;;;;5001374;28;20105;-76
2022/01/28 09:39:29;;;;;;;3.25;0.90;;;4.40;99.90;;;;;;5000048;28;20054;-76
2022/01/28 09:42:02;;;;;;;5.38;0.85;;;4.40;99.90;;;;;;4986586;28;20050;-76
2022/01/28 09:44:33;;;;;;;2.20;0.73;;;4.40;99.90;;;;;;4984495;28;20046;-76
2022/01/28 09:47:02;;;;;;;7.82;1.02;;;4.40;99.90;;;;;;4981413;28;20071;-76
2022/01/28 09:49:33;;;;;;;3.50;1.30;;;4.50;99.90;;;;;;4983297;28;20060;-76
2022/01/28 09:52:11;;;;;;;2.22;0.85;;;4.40;99.90;;;;;;4989881;28;20540;-77
2022/01/28 09:54:43;;;;;;;3.58;0.75;;;4.50;99.90;;;;;;4999464;28;20061;-76
2022/01/28 09:57:12;;;;;;;3.10;1.10;;;4.60;99.90;;;;;;5001396;28;20070;-76
2022/01/28 09:59:41;;;;;;;2.97;1.08;;;4.60;99.90;;;;;;5003784;28;20676;-77
2022/01/28 10:02:10;;;;;;;4.13;0.80;;;4.70;99.90;;;;;;4996768;28;20114;-76
2022/01/28 10:04:39;;;;;;;4.90;1.13;;;4.80;99.90;;;;;;4987635;28;20048;-76
2022/01/28 10:07:12;;;;;;;4.15;0.98;;;4.80;99.90;;;;;;4989438;28;20125;-77
2022/01/28 10:09:56;;;;;;;2.10;0.60;;;4.80;99.90;;;;;;4984750;28;20512;-77
2022/01/28 10:12:32;;;;;;;4.55;0.98;;;4.90;99.90;;;;;;4987383;28;20052;-76
2022/01/28 10:15:04;;;;;;;7.40;1.05;;;4.90;99.90;;;;;;4984085;28;20053;-76
2022/01/28 10:17:52;;;;;;;1.95;0.45;;;4.80;99.90;;;;;;4993761;28;20062;-76
2022/01/28 10:20:22;;;;;;;1.85;0.70;;;4.80;99.90;;;;;;4987471;28;20125;-76
2022/01/28 10:22:54;;;;;;;1.20;0.27;;;4.80;99.90;;;;;;5002773;28;20073;-76
2022/01/28 10:25:24;;;;;;;8.45;1.00;;;4.80;99.90;;;;;;5001776;28;20053;-76
2022/01/28 10:28:00;;;;;;;2.25;0.68;;;4.80;99.90;;;;;;4989117;28;20073;-76
2022/01/28 10:30:31;;;;;;;1.98;0.50;;;4.90;99.90;;;;;;5002636;28;20094;-76
2022/01/28 10:33:15;;;;;;;3.70;0.70;;;4.80;99.90;;;;;;5000231;28;20515;-75
2022/01/28 10:36:09;;;;;;;1.93;0.40;;;4.90;99.90;;;;;;4987661;28;20046;-75
2022/01/28 10:38:41;;;;;;;2.13;0.60;;;4.80;99.90;;;;;;4984531;28;20457;-76
2022/01/28 10:41:13;;;;;;;3.22;0.60;;;4.80;99.90;;;;;;5001039;28;20034;-76
2022/01/28 10:43:46;;;;;;;2.30;0.45;;;4.90;99.90;;;;;;4999378;28;20479;-77
2022/01/28 10:46:22;;;;;;;1.92;0.70;;;5.00;99.90;;;;;;4983884;28;20481;-76
2022/01/28 10:48:56;;;;;;;4.53;0.60;;;5.00;99.90;;;;;;4986248;28;20038;-76
2022/01/28 10:51:39;;;;;;;2.00;0.88;;;4.90;99.90;;;;;;4985896;28;20129;-76
2022/01/28 10:54:59;;;;;;;3.30;0.73;;;4.90;99.90;;;;;;4987857;28;20042;-76
2022/01/28 10:57:31;;;;;;;5.07;0.52;;;5.00;99.90;;;;;;5002395;28;20042;-76
2022/01/28 11:00:02;;;;;;;5.80;0.73;;;4.90;99.90;;;;;;5001228;28;20034;-76
2022/01/28 11:02:31;;;;;;;3.07;0.63;;;4.80;99.90;;;;;;4990115;28;20038;-77
2022/01/28 11:05:01;;;;;;;4.38;0.85;;;4.80;99.90;;;;;;4974211;28;20631;-76
2022/01/28 11:07:30;;;;;;;1.80;0.52;;;4.80;99.90;;;;;;4996335;28;20167;-77
2022/01/28 11:10:04;;;;;;;5.97;0.47;;;4.90;99.90;;;;;;4987669;28;20078;-75
2022/01/28 11:12:38;;;;;;;2.13;0.70;;;4.90;99.90;;;;;;4994366;28;20042;-76
2022/01/28 11:15:22;;;;;;;4.33;0.50;;;4.90;99.90;;;;;;5000275;28;20038;-76
2022/01/28 11:17:53;;;;;;;2.72;0.70;;;5.00;99.90;;;;;;4989235;28;20058;-77
2022/01/28 11:20:24;;;;;;;1.90;0.70;;;5.00;99.90;;;;;;4972495;28;20390;-76
2022/01/28 11:23:09;;;;;;;1.77;0.40;;;5.10;99.90;;;;;;4998543;28;20051;-76
2022/01/28 11:25:49;;;;;;;3.33;0.77;;;5.10;99.90;;;;;;4980524;28;20055;-76
2022/01/28 11:28:18;;;;;;;1.77;0.30;;;5.10;99.90;;;;;;4980952;28;20062;-76
2022/01/28 11:30:48;;;;;;;3.20;0.70;;;5.20;99.90;;;;;;4983836;28;20050;-76
2022/01/28 11:33:18;;;;;;;3.40;0.93;;;5.20;99.90;;;;;;4998391;28;20124;-76
2022/01/28 11:36:09;;;;;;;3.15;1.08;;;5.10;99.90;;;;;;4983204;28;20047;-74
2022/01/28 11:38:56;;;;;;;1.80;0.43;;;5.10;99.90;;;;;;4987218;28;20050;-75
2022/01/28 11:41:34;;;;;;;3.73;0.53;;;5.10;99.90;;;;;;4998672;28;20054;-75
2022/01/28 11:44:03;;;;;;;6.90;0.70;;;5.20;99.90;;;;;;4985766;28;20046;-75
2022/01/28 11:53:00;;;;;;;1.10;0.30;;;5.20;99.90;;;;;;4986392;28;20042;-75
2022/01/28 11:55:46;;;;;;;2.73;0.40;;;5.10;99.90;;;;;;4982739;28;20117;-75
2022/01/28 11:58:17;;;;;;;4.53;0.57;;;5.20;99.90;;;;;;4998283;28;20499;-75
2022/01/28 12:00:57;;;;;;;2.85;0.50;;;5.30;99.90;;;;;;4982229;28;20086;-76
2022/01/28 12:03:28;;;;;;;4.30;0.70;;;5.20;99.90;;;;;;4998960;28;20081;-76
2022/01/28 12:05:58;;;;;;;6.05;0.70;;;5.30;99.90;;;;;;4984481;28;20046;-77
2022/01/28 12:08:32;;;;;;;2.43;0.70;;;5.20;99.90;;;;;;4999845;28;20050;-74
2022/01/28 12:11:02;;;;;;;1.98;0.63;;;5.30;99.90;;;;;;5013930;28;20049;-75
2022/01/28 12:13:52;;;;;;;4.32;0.73;;;5.30;99.90;;;;;;4991428;28;20057;-74
2022/01/28 12:16:30;;;;;;;5.93;0.70;;;5.30;99.90;;;;;;4997090;28;20109;-74
2022/01/28 12:19:18;;;;;;;1.80;0.40;;;5.30;99.90;;;;;;5000827;28;20034;-75
2022/01/28 12:22:05;;;;;;;3.80;0.60;;;5.30;99.90;;;;;;5000045;28;20046;-74
2022/01/28 12:24:35;;;;;;;3.25;1.08;;;5.30;99.90;;;;;;4999094;28;20054;-75
2022/01/28 12:27:05;;;;;;;2.10;0.75;;;5.40;99.90;;;;;;4999945;28;20042;-75
2022/01/28 12:29:44;;;;;;;4.15;0.65;;;5.30;99.90;;;;;;4997945;28;20078;-75
2022/01/28 12:32:14;;;;;;;1.80;0.40;;;5.30;99.90;;;;;;4988040;28;20046;-75
2022/01/28 12:37:48;;;;;;;6.95;1.08;;;5.40;99.90;;;;;;4995827;28;20057;-75
2022/01/28 12:40:49;;;;;;;2.00;0.52;;;5.40;99.90;;;;;;4981648;28;20422;-75
2022/01/28 12:43:19;;;;;;;2.60;0.57;;;5.50;99.90;;;;;;4979486;28;20046;-73
2022/01/28 12:45:58;;;;;;;4.90;1.00;;;5.40;99.90;;;;;;5002386;28;20367;-74
2022/01/28 12:48:28;;;;;;;5.20;0.87;;;5.40;99.90;;;;;;4988826;28;20057;-74
2022/01/28 12:50:58;;;;;;;2.42;0.35;;;5.40;99.90;;;;;;4984930;28;20041;-74
2022/01/28 12:53:34;;;;;;;2.40;0.60;;;5.50;99.90;;;;;;4984129;28;20038;-74
2022/01/28 12:56:08;;;;;;;3.53;0.73;;;5.50;99.90;;;;;;4975035;28;20085;-75
2022/01/28 12:58:40;;;;;;;4.45;0.90;;;5.60;99.90;;;;;;4981621;28;20038;-76
2022/01/28 13:01:12;;;;;;;4.20;0.50;;;5.50;99.90;;;;;;4986882;28;20577;-76
2022/01/28 13:03:49;;;;;;;2.50;0.65;;;5.40;99.90;;;;;;4995922;28;20037;-74
2022/01/28 13:06:26;;;;;;;3.03;0.82;;;5.40;99.90;;;;;;4991460;28;20047;-74
2022/01/28 13:09:11;;;;;;;3.70;0.70;;;5.50;99.90;;;;;;4999850;28;20042;-75
2022/01/28 13:11:47;;;;;;;2.97;0.65;;;5.60;99.90;;;;;;4996128;28;20035;-76
2022/01/28 13:14:16;;;;;;;3.20;0.87;;;5.60;99.90;;;;;;4985744;28;20057;-74
2022/01/28 13:17:09;;;;;;;3.17;0.45;;;5.60;99.90;;;;;;4994487;28;20047;-74
2022/01/28 13:19:38;;;;;;;3.97;0.85;;;5.60;99.90;;;;;;4983914;28;20137;-74
2022/01/28 13:22:07;;;;;;;2.58;0.52;;;5.60;99.90;;;;;;4979160;28;20072;-74
2022/01/28 13:24:36;;;;;;;1.98;0.32;;;5.50;99.90;;;;;;4997563;28;20086;-74
2022/01/28 13:27:07;;;;;;;6.63;0.60;;;5.50;99.90;;;;;;4983752;28;20046;-74
2022/01/28 13:29:38;;;;;;;3.80;1.17;;;5.50;99.90;;;;;;4981746;28;20133;-74
2022/01/28 13:32:11;;;;;;;13.13;1.13;;;5.60;99.90;;;;;;4994414;28;20043;-74
2022/01/28 13:35:12;;;;;;;5.60;0.90;;;5.60;99.90;;;;;;4978477;28;20145;-74
2022/01/28 13:38:15;;;;;;;3.08;0.90;;;5.50;99.90;;;;;;4987496;28;20520;-75
2022/01/28 13:40:45;;;;;;;2.47;0.60;;;5.60;99.90;;;;;;4998060;28;20490;-74
2022/01/28 13:43:15;;;;;;;10.82;1.00;;;5.60;99.90;;;;;;4987195;28;20097;-75
2022/01/28 13:45:48;;;;;;;2.70;0.52;;;5.60;99.90;;;;;;4974930;28;20476;-75
2022/01/28 13:48:22;;;;;;;5.82;1.27;;;5.60;99.90;;;;;;4998262;28;20042;-75
2022/01/28 13:50:52;;;;;;;7.72;0.80;;;5.70;99.90;;;;;;5000977;28;20046;-75
2022/01/28 13:56:13;;;;;;;6.68;1.02;;;5.60;99.90;;;;;;4985040;28;20132;-75
2022/01/28 13:58:46;;;;;;;2.33;0.60;;;5.50;99.90;;;;;;5014374;28;20058;-75
2022/01/28 14:01:15;;;;;;;2.95;0.60;;;5.60;99.90;;;;;;5001504;28;20045;-75
2022/01/28 14:03:51;;;;;;;3.80;0.65;;;5.50;99.90;;;;;;4983338;28;20045;-75
2022/01/28 14:06:21;;;;;;;8.27;0.97;;;5.50;99.90;;;;;;4985796;28;20038;-75
2022/01/28 14:09:09;;;;;;;3.53;0.70;;;5.40;99.90;;;;;;5004002;28;20552;-76
2022/01/28 14:11:42;;;;;;;5.28;0.75;;;5.50;99.90;;;;;;4983357;28;20046;-76
2022/01/28 14:14:23;;;;;;;3.92;0.40;;;5.50;99.90;;;;;;4999022;28;20066;-76
2022/01/28 14:16:59;;;;;;;1.55;0.40;;;5.60;99.90;;;;;;5006528;28;20096;-74
2022/01/28 14:19:31;;;;;;;1.80;0.40;;;5.60;99.90;;;;;;4985246;28;20046;-76
2022/01/28 14:22:00;;;;;;;2.17;0.75;;;5.50;99.90;;;;;;4994672;28;20043;-76
2022/01/28 14:24:49;;;;;;;2.40;0.50;;;5.60;99.90;;;;;;4985058;28;20559;-74
2022/01/28 14:27:47;;;;;;;3.38;0.45;;;5.60;99.90;;;;;;5002678;28;20047;-74
2022/01/28 14:30:33;;;;;;;1.00;0.20;;;5.60;99.90;;;;;;5003933;28;20049;-74
2022/01/28 14:33:02;;;;;;;6.30;0.67;;;5.70;99.90;;;;;;4997385;28;20038;-74
2022/01/28 14:35:32;;;;;;;1.90;0.35;;;5.60;99.90;;;;;;4998967;28;20116;-74
2022/01/28 14:38:01;;;;;;;2.47;0.40;;;5.60;99.90;;;;;;4991640;28;20058;-74
2022/01/28 14:40:30;;;;;;;2.65;0.93;;;5.60;99.90;;;;;;4989968;28;20048;-76
2022/01/28 14:43:24;;;;;;;7.90;0.68;;;5.60;99.90;;;;;;5004773;28;20049;-74
2022/01/28 14:45:53;;;;;;;2.17;0.40;;;5.50;99.90;;;;;;5002708;28;20049;-74
2022/01/28 14:48:22;;;;;;;8.15;0.40;;;5.50;99.90;;;;;;4983137;28;20042;-74
2022/01/28 14:50:52;;;;;;;5.68;0.52;;;5.50;99.90;;;;;;4981718;28;20393;-75
2022/01/28 14:53:21;;;;;;;8.93;0.73;;;5.60;99.90;;;;;;4987478;28;20054;-74
2022/01/28 14:55:50;;;;;;;1.83;0.40;;;5.60;99.90;;;;;;4987845;28;20042;-74
2022/01/28 14:58:19;;;;;;;0.63;0.30;;;5.60;99.90;;;;;;4987835;28;20057;-74